Time;durP1;ratioP1;P1;durP2;ratioP2;P2;SDS_P1;SDS_P2;PMS_P1;PMS_P2;Temp;Humidity;BMP_temperature;BMP_pressure;BME280_temperature;BME280_humidity;BME280_pressure;Samples;Min_cycle;Max_cycle;Signal;HPM_P1;HPM_P2
2023/03/14 00:00:18;;;;;;;;;1.50;1.00;;;;;12.59;60.53;98975.56;4998386;28;45670;-66
2023/03/14 00:02:43;;;;;;;;;2.25;1.00;;;;;12.59;60.48;98988.75;4997379;28;45437;-66
2023/03/14 00:05:09;;;;;;;;;1.00;1.00;;;;;12.59;60.74;98972.94;4998220;28;45222;-66
2023/03/14 00:07:39;;;;;;;;;1.00;1.00;;;;;12.59;60.52;98983.47;4998338;28;45554;-66
2023/03/14 00:10:08;;;;;;;;;1.75;1.00;;;;;12.58;60.58;98980.91;4998137;28;45385;-66
2023/03/14 00:12:33;;;;;;;;;2.00;1.00;;;;;12.61;60.56;98983.41;4998121;28;45263;-66
2023/03/14 00:15:00;;;;;;;;;7.25;1.50;;;;;12.60;60.52;98969.38;4998067;28;46080;-66
2023/03/14 00:17:26;;;;;;;;;4.00;2.00;;;;;12.58;60.74;98960.69;4998060;28;45424;-65
2023/03/14 00:19:53;;;;;;;;;1.75;0.00;;;;;12.63;60.79;98961.31;4988895;28;45386;-66
2023/03/14 00:22:19;;;;;;;;;2.25;1.00;;;;;12.61;60.70;98965.78;4996668;28;45357;-66
2023/03/14 00:24:45;;;;;;;;;4.50;1.75;;;;;12.56;61.27;98961.69;5007377;28;46333;-66
2023/03/14 00:27:10;;;;;;;;;3.50;1.00;;;;;12.57;60.83;98951.06;5000057;28;45350;-66
2023/03/14 00:29:35;;;;;;;;;4.00;3.00;;;;;12.51;61.01;98954.88;4997895;28;45913;-66
2023/03/14 00:32:00;;;;;;;;;1.00;1.00;;;;;12.55;60.85;98960.00;4997920;28;45406;-66
2023/03/14 00:34:30;;;;;;;;;4.00;1.00;;;;;12.54;60.86;98953.88;4997445;28;52516;-66
2023/03/14 00:36:55;;;;;;;;;3.00;1.75;;;;;12.55;60.90;98946.81;4997726;28;45317;-66
2023/03/14 00:39:21;;;;;;;;;1.75;1.00;;;;;12.45;61.19;98939.38;4997912;28;45274;-66
2023/03/14 00:41:47;;;;;;;;;2.25;2.00;;;;;12.46;61.05;98951.59;4997656;28;45486;-66
2023/03/14 00:44:12;;;;;;;;;3.25;1.25;;;;;12.43;61.45;98930.69;4997735;28;46196;-66
2023/03/14 00:46:38;;;;;;;;;0.50;0.50;;;;;12.43;61.60;98937.75;4997445;28;45181;-66
2023/03/14 00:49:03;;;;;;;;;2.00;1.00;;;;;12.41;61.31;98939.63;4997341;28;45450;-65
2023/03/14 00:51:28;;;;;;;;;1.00;1.00;;;;;12.37;61.67;98940.69;4984117;28;52983;-66
2023/03/14 00:53:54;;;;;;;;;2.00;1.50;;;;;12.37;61.56;98930.16;4997666;28;45489;-66
2023/03/14 00:56:19;;;;;;;;;1.50;1.00;;;;;12.35;61.62;98923.19;4997476;28;45338;-65
2023/03/14 00:58:44;;;;;;;;;6.50;1.00;;;;;12.39;61.69;98941.47;4997744;28;45261;-66
2023/03/14 01:01:14;;;;;;;;;2.00;1.75;;;;;12.39;61.77;98923.91;4997444;28;45313;-66
2023/03/14 01:03:39;;;;;;;;;2.00;1.75;;;;;12.34;61.41;98913.56;4997759;28;46766;-66
2023/03/14 01:06:13;;;;;;;;;2.75;0.50;;;;;12.38;61.19;98926.56;4996898;28;46354;-66
2023/03/14 01:08:38;;;;;;;;;2.25;2.00;;;;;12.39;61.26;98923.03;4996373;28;45249;-66
2023/03/14 01:11:09;;;;;;;;;4.00;3.00;;;;;12.36;61.66;98942.47;4997153;28;46621;-66
2023/03/14 01:13:36;;;;;;;;;1.00;0.00;;;;;12.36;61.41;98929.31;4997497;28;46246;-66
2023/03/14 01:16:06;;;;;;;;;2.25;1.50;;;;;12.33;61.50;98924.19;4997104;28;45358;-66
2023/03/14 01:18:33;;;;;;;;;4.50;2.75;;;;;12.30;61.65;98930.47;4997415;28;45156;-66
2023/03/14 01:20:58;;;;;;;;;1.25;1.00;;;;;12.31;61.70;98934.81;4982005;28;45588;-66
2023/03/14 01:23:23;;;;;;;;;2.75;2.50;;;;;12.31;61.95;98936.59;4997048;28;45373;-66
2023/03/14 01:25:49;;;;;;;;;1.00;1.00;;;;;12.30;61.88;98935.75;4997042;28;45317;-66
2023/03/14 01:28:14;;;;;;;;;3.25;1.50;;;;;12.30;62.00;98932.25;4997415;28;45311;-65
2023/03/14 01:30:39;;;;;;;;;3.00;2.00;;;;;12.31;61.70;98920.78;4995766;28;45762;-66
2023/03/14 01:33:05;;;;;;;;;3.75;1.00;;;;;12.28;61.69;98919.16;4996758;28;56240;-66
2023/03/14 01:35:30;;;;;;;;;1.25;1.25;;;;;12.31;61.95;98920.78;4996831;28;45338;-66
2023/03/14 01:37:55;;;;;;;;;3.00;1.25;;;;;12.31;61.74;98921.66;4997126;28;45460;-66
2023/03/14 01:40:21;;;;;;;;;2.50;1.50;;;;;12.29;62.01;98930.53;4996904;28;45298;-66
2023/03/14 01:42:55;;;;;;;;;6.25;2.00;;;;;12.28;61.84;98916.53;4996826;28;45369;-66
2023/03/14 01:45:57;;;;;;;;;4.75;2.00;;;;;12.30;62.24;98933.09;4996857;28;45455;-66
2023/03/14 01:48:24;;;;;;;;;10.00;2.00;;;;;12.27;62.16;98935.88;4996698;28;45315;-66
2023/03/14 01:50:49;;;;;;;;;2.75;1.00;;;;;12.29;62.33;98927.88;4986952;28;45442;-66
2023/03/14 01:53:15;;;;;;;;;3.25;0.25;;;;;12.25;62.16;98921.09;4992959;28;45346;-66
2023/03/14 01:55:40;;;;;;;;;5.00;2.00;;;;;12.30;62.13;98953.31;4996955;28;45378;-66
2023/03/14 01:58:07;;;;;;;;;3.75;1.00;;;;;12.28;62.33;98934.13;4996677;28;45293;-66
2023/03/14 02:00:32;;;;;;;;;2.25;1.00;;;;;12.27;62.28;98932.41;5011829;27;45442;-66
2023/03/14 02:03:05;;;;;;;;;2.00;0.00;;;;;12.24;62.34;98920.25;4996425;28;45446;-66
2023/03/14 02:05:32;;;;;;;;;0.50;0.50;;;;;12.21;62.63;98944.09;5011695;28;45291;-66
2023/03/14 02:08:00;;;;;;;;;1.75;1.50;;;;;12.22;62.57;98923.88;4996562;28;45352;-66
2023/03/14 02:10:31;;;;;;;;;2.00;0.00;;;;;12.24;62.34;98929.91;4996486;28;45323;-66
2023/03/14 02:13:01;;;;;;;;;2.00;1.00;;;;;12.23;62.43;98934.34;4996228;28;45330;-66
2023/03/14 02:15:27;;;;;;;;;2.00;1.00;;;;;12.23;62.71;98917.69;5011752;28;45422;-65
2023/03/14 02:17:53;;;;;;;;;2.50;1.00;;;;;12.24;62.77;98924.63;4996287;28;45237;-66
2023/03/14 02:20:26;;;;;;;;;2.00;1.00;;;;;12.25;62.34;98927.22;4997926;28;45422;-66
2023/03/14 02:22:52;;;;;;;;;1.50;0.75;;;;;12.24;62.50;98938.69;4984068;28;46210;-66
2023/03/14 02:25:20;;;;;;;;;1.75;1.75;;;;;12.23;62.63;98928.22;4997353;28;45206;-66
2023/03/14 02:27:47;;;;;;;;;5.50;2.00;;;;;12.19;62.51;98923.09;4999727;28;45431;-65
2023/03/14 02:30:20;;;;;;;;;7.00;0.50;;;;;12.19;62.71;98933.63;5014610;28;45329;-65
2023/03/14 02:32:54;;;;;;;;;2.00;1.00;;;;;12.17;62.90;98929.38;4999329;28;46156;-65
2023/03/14 02:35:23;;;;;;;;;3.50;2.25;;;;;12.16;62.89;98927.66;4999171;28;45389;-65
2023/03/14 02:38:26;;;;;;;;;1.50;0.75;;;;;12.13;62.77;98931.28;4999358;28;45383;-65
2023/03/14 02:40:51;;;;;;;;;1.75;1.00;;;;;12.13;62.95;98931.28;4988507;27;45354;-65
2023/03/14 02:43:17;;;;;;;;;1.00;1.00;;;;;12.14;62.33;98940.06;4998994;28;46033;-65
2023/03/14 02:45:45;;;;;;;;;1.50;0.50;;;;;12.13;63.04;98938.34;4999347;28;45361;-65
2023/03/14 02:48:34;;;;;;;;;2.75;1.00;;;;;12.11;62.89;98934.94;4998975;28;45468;-65
2023/03/14 02:51:01;;;;;;;;;4.00;1.75;;;;;12.09;63.06;98924.50;4986481;27;45379;-65
2023/03/14 02:53:33;;;;;;;;;2.50;1.25;;;;;12.05;63.26;98922.06;4995524;28;47381;-65
2023/03/14 02:55:59;;;;;;;;;1.00;1.00;;;;;12.09;63.10;98927.13;4999010;28;45339;-65
2023/03/14 02:58:25;;;;;;;;;1.25;0.25;;;;;12.07;63.22;98928.13;4999098;28;45452;-65
2023/03/14 03:00:51;;;;;;;;;1.00;1.00;;;;;12.07;62.87;98922.84;4998955;28;45556;-65
2023/03/14 03:03:16;;;;;;;;;1.00;1.00;;;;;12.08;63.45;98927.19;4998714;28;45366;-65
2023/03/14 03:05:44;;;;;;;;;2.00;0.00;;;;;12.06;63.48;98919.34;4998819;28;45247;-65
2023/03/14 03:08:10;;;;;;;;;0.25;0.25;;;;;12.06;63.33;98915.88;4998856;28;45228;-65
2023/03/14 03:10:36;;;;;;;;;2.50;1.00;;;;;12.03;63.42;98917.72;4998688;28;45476;-65
2023/03/14 03:13:02;;;;;;;;;2.00;2.00;;;;;12.03;63.82;98927.41;4998877;28;45212;-65
2023/03/14 03:15:27;;;;;;;;;0.00;0.00;;;;;12.04;63.59;98923.88;4998918;28;45290;-65
2023/03/14 03:17:53;;;;;;;;;1.00;0.00;;;;;12.01;63.25;98913.47;4998818;28;45247;-65
2023/03/14 03:20:18;;;;;;;;;0.50;0.00;;;;;12.02;63.45;98921.31;4997469;28;45529;-65
2023/03/14 03:22:43;;;;;;;;;1.75;0.00;;;;;12.06;63.36;98923.78;4997538;28;47506;-65
2023/03/14 03:25:09;;;;;;;;;3.00;0.00;;;;;12.06;63.53;98916.72;4997372;28;45335;-64
2023/03/14 03:27:36;;;;;;;;;3.00;0.00;;;;;12.03;63.45;98927.41;4997531;28;45398;-64
2023/03/14 03:30:04;;;;;;;;;0.00;0.00;;;;;12.07;63.22;98941.28;4998772;28;45796;-64
2023/03/14 03:32:29;;;;;;;;;0.50;0.50;;;;;12.05;63.42;98930.84;5011669;28;45237;-64
2023/03/14 03:34:54;;;;;;;;;1.25;0.50;;;;;12.03;63.67;98932.69;4998292;28;45302;-64
2023/03/14 03:37:20;;;;;;;;;0.00;0.00;;;;;12.02;63.46;98923.06;4997708;28;45278;-65
2023/03/14 03:39:45;;;;;;;;;0.00;0.00;;;;;12.03;63.53;98933.53;4998470;28;45228;-64
2023/03/14 03:42:10;;;;;;;;;0.00;0.00;;;;;12.00;63.48;98946.00;4998735;28;45331;-64
2023/03/14 03:44:36;;;;;;;;;2.50;0.75;;;;;12.01;63.79;98940.66;4998371;28;46341;-64
2023/03/14 03:47:02;;;;;;;;;0.00;0.00;;;;;12.00;63.77;98938.94;4997166;28;45330;-64
2023/03/14 03:49:31;;;;;;;;;0.25;0.00;;;;;11.96;63.42;98940.03;4998147;28;45328;-63
2023/03/14 03:51:57;;;;;;;;;1.00;0.00;;;;;11.95;64.02;98934.78;4983618;27;47539;-63
2023/03/14 03:54:22;;;;;;;;;0.00;0.00;;;;;11.97;64.09;98965.41;4998261;28;45391;-63
2023/03/14 03:56:48;;;;;;;;;1.00;0.00;;;;;11.96;64.18;98950.56;4998270;28;45487;-63
2023/03/14 03:59:13;;;;;;;;;1.00;0.00;;;;;11.95;64.09;98955.84;5013488;28;48827;-63
2023/03/14 04:01:38;;;;;;;;;0.00;0.00;;;;;11.92;64.33;98954.22;4998102;28;45211;-65
2023/03/14 04:04:04;;;;;;;;;0.00;0.00;;;;;11.94;63.88;98954.19;4998233;28;45286;-63
2023/03/14 04:06:29;;;;;;;;;0.00;0.00;;;;;11.90;64.06;98956.09;4998288;28;45211;-63
2023/03/14 04:08:54;;;;;;;;;0.00;0.00;;;;;11.92;64.23;98959.50;4998281;28;45483;-63
2023/03/14 04:11:20;;;;;;;;;0.00;0.00;;;;;11.93;64.05;98960.34;4997960;28;46935;-64
2023/03/14 04:13:45;;;;;;;;;0.75;0.00;;;;;11.90;63.70;98953.47;4997023;28;45397;-64
2023/03/14 04:16:16;;;;;;;;;0.00;0.00;;;;;11.93;64.18;98958.56;4998307;28;45223;-64
2023/03/14 04:18:41;;;;;;;;;0.50;0.00;;;;;11.91;64.36;98960.44;4997869;28;45314;-64
2023/03/14 04:21:06;;;;;;;;;0.00;0.00;;;;;11.92;64.43;98979.69;4991451;27;46226;-64
2023/03/14 04:23:33;;;;;;;;;0.00;0.00;;;;;11.91;64.25;98973.59;5005145;28;45428;-65
2023/03/14 04:25:58;;;;;;;;;0.00;0.00;;;;;11.92;64.41;98971.81;4998036;28;45376;-65
2023/03/14 04:28:24;;;;;;;;;0.00;0.00;;;;;11.90;64.60;98969.25;4998021;28;45423;-65
2023/03/14 04:30:49;;;;;;;;;0.75;0.75;;;;;11.92;64.12;98979.69;4985017;27;46231;-64
2023/03/14 04:33:17;;;;;;;;;0.00;0.00;;;;;11.88;64.50;98984.25;5012245;28;56705;-64
2023/03/14 04:35:43;;;;;;;;;2.00;0.00;;;;;11.92;64.40;98983.19;4998053;28;45255;-64
2023/03/14 04:38:09;;;;;;;;;0.00;0.00;;;;;11.93;64.49;98989.31;4997593;28;45524;-63
2023/03/14 04:40:39;;;;;;;;;0.00;0.00;;;;;11.88;64.50;98989.53;4997708;28;45418;-63
2023/03/14 04:43:05;;;;;;;;;0.00;0.00;;;;;11.90;64.81;98997.34;4997932;28;45572;-64
2023/03/14 04:45:30;;;;;;;;;1.00;0.00;;;;;11.90;64.56;98992.06;4997808;28;45416;-64
2023/03/14 04:47:55;;;;;;;;;1.00;0.25;;;;;11.88;64.64;99007.94;4997249;28;45340;-64
2023/03/14 04:50:21;;;;;;;;;0.50;0.50;;;;;11.86;64.80;99001.88;4991629;27;49446;-64
2023/03/14 04:52:46;;;;;;;;;1.00;0.00;;;;;11.87;64.80;99015.00;4990307;28;45176;-63
2023/03/14 04:55:11;;;;;;;;;0.00;0.00;;;;;11.86;64.90;99033.47;4997577;28;45154;-64
2023/03/14 04:57:37;;;;;;;;;2.00;1.00;;;;;11.83;65.02;99041.53;4997760;28;45193;-64
2023/03/14 05:00:06;;;;;;;;;2.00;2.00;;;;;11.87;64.84;99072.91;4997346;28;45382;-64
2023/03/14 05:02:31;;;;;;;;;0.00;0.00;;;;;11.86;65.13;99094.00;4997756;28;45393;-64
2023/03/14 05:04:57;;;;;;;;;1.00;0.00;;;;;11.87;65.04;99103.63;4996294;28;45520;-64
2023/03/14 05:07:22;;;;;;;;;0.00;0.00;;;;;11.89;64.58;99100.94;4997632;28;45334;-64
2023/03/14 05:09:47;;;;;;;;;0.00;0.00;;;;;11.85;65.15;99110.75;5012346;28;49601;-64
2023/03/14 05:12:13;;;;;;;;;1.25;1.00;;;;;11.83;64.58;99112.59;4997638;28;45348;-64
2023/03/14 05:14:39;;;;;;;;;0.50;0.25;;;;;11.79;64.42;99129.44;4997597;28;45660;-64
2023/03/14 05:17:04;;;;;;;;;3.00;1.00;;;;;11.78;64.49;99127.72;4997361;28;45259;-64
2023/03/14 05:19:30;;;;;;;;;1.75;1.75;;;;;11.73;64.21;99146.34;4982706;28;45312;-64
2023/03/14 05:21:55;;;;;;;;;3.00;2.50;;;;;11.65;63.83;99149.31;4997334;28;45255;-64
2023/03/14 05:24:21;;;;;;;;;2.00;1.75;;;;;11.60;63.41;99177.63;4997291;28;45488;-64
2023/03/14 05:26:46;;;;;;;;;2.75;2.75;;;;;11.53;63.34;99178.78;4997451;28;45407;-64
2023/03/14 05:29:11;;;;;;;;;2.25;1.50;;;;;11.44;63.14;99184.47;4997082;28;46177;-64
2023/03/14 05:31:37;;;;;;;;;6.50;3.00;;;;;11.38;63.05;99183.81;4997205;28;45239;-64
2023/03/14 05:34:02;;;;;;;;;1.00;1.00;;;;;11.27;62.87;99195.69;4995714;28;45219;-64
2023/03/14 05:36:27;;;;;;;;;2.75;2.50;;;;;11.28;62.92;99215.81;4997132;28;45237;-64
2023/03/14 05:38:53;;;;;;;;;1.50;1.00;;;;;11.25;62.90;99222.03;4996699;28;46146;-64
2023/03/14 05:41:18;;;;;;;;;2.00;2.00;;;;;11.23;62.78;99221.25;4997146;28;45202;-64
2023/03/14 05:43:43;;;;;;;;;3.50;3.50;;;;;11.19;62.75;99240.69;4997032;27;45296;-64
2023/03/14 05:46:08;;;;;;;;;3.50;1.00;;;;;11.17;62.86;99248.66;4996812;28;49558;-64
2023/03/14 05:48:34;;;;;;;;;3.00;2.00;;;;;11.15;62.55;99242.59;5011699;27;47268;-64
2023/03/14 05:50:59;;;;;;;;;7.00;3.50;;;;;11.11;62.18;99256.78;5001065;27;45402;-64
2023/03/14 05:53:25;;;;;;;;;3.25;2.00;;;;;11.10;62.42;99288.41;4994431;28;45326;-65
2023/03/14 05:55:52;;;;;;;;;3.50;2.00;;;;;11.08;62.45;99300.75;4996649;28;45318;-64
2023/03/14 05:58:18;;;;;;;;;4.25;3.00;;;;;10.98;62.19;99269.56;4995406;28;45415;-64
2023/03/14 06:00:43;;;;;;;;;6.00;3.00;;;;;11.01;62.24;99300.97;4998256;28;45355;-64
2023/03/14 06:03:08;;;;;;;;;4.00;2.00;;;;;10.99;61.74;99312.47;4999800;28;45362;-64
2023/03/14 06:05:34;;;;;;;;;5.00;2.50;;;;;10.97;61.83;99315.16;4999683;28;45561;-64
2023/03/14 06:07:59;;;;;;;;;2.50;1.75;;;;;10.95;61.71;99326.66;4999472;28;45271;-64
2023/03/14 06:10:24;;;;;;;;;2.75;2.50;;;;;10.92;61.85;99334.63;4999494;28;45308;-65
2023/03/14 06:12:50;;;;;;;;;3.50;2.00;;;;;10.90;61.72;99345.22;5014976;28;45258;-64
2023/03/14 06:15:15;;;;;;;;;5.00;2.25;;;;;10.87;61.32;99340.09;4999650;28;45330;-65
2023/03/14 06:17:40;;;;;;;;;3.75;1.00;;;;;10.88;61.04;99366.31;4999326;28;45269;-65
2023/03/14 06:20:06;;;;;;;;;7.50;3.00;;;;;10.80;61.20;99378.84;4988054;28;45228;-64
2023/03/14 06:22:31;;;;;;;;;3.50;2.50;;;;;10.81;61.05;99395.50;5012534;28;45367;-65
2023/03/14 06:24:56;;;;;;;;;5.50;3.75;;;;;10.75;60.83;99391.31;4999434;28;45527;-64
2023/03/14 06:27:22;;;;;;;;;3.75;3.00;;;;;10.75;60.69;99403.59;4999286;28;46509;-64
2023/03/14 06:29:47;;;;;;;;;6.00;3.25;;;;;10.70;60.60;99414.28;4999417;28;45298;-64
2023/03/14 06:32:12;;;;;;;;;5.50;4.75;;;;;10.66;60.41;99424.03;4997526;28;45313;-64
2023/03/14 06:34:38;;;;;;;;;3.00;3.00;;;;;10.63;60.46;99436.41;4999370;28;45265;-64
2023/03/14 06:37:04;;;;;;;;;4.00;3.75;;;;;10.56;60.33;99444.53;4999107;28;45949;-65
2023/03/14 06:39:29;;;;;;;;;6.25;4.75;;;;;10.56;60.24;99469.94;5013982;28;45335;-65
2023/03/14 06:41:55;;;;;;;;;5.00;3.75;;;;;10.51;60.17;99466.59;4999261;28;45344;-65
2023/03/14 06:44:20;;;;;;;;;6.00;2.75;;;;;10.48;59.80;99480.69;4999095;28;48578;-65
2023/03/14 06:46:45;;;;;;;;;3.50;2.75;;;;;10.47;59.77;99489.47;4998922;28;47831;-65
2023/03/14 06:49:10;;;;;;;;;7.00;4.00;;;;;10.46;59.82;99514.03;4998364;28;53616;-65
2023/03/14 06:51:36;;;;;;;;;5.25;4.25;;;;;10.41;59.70;99505.44;4985875;28;45319;-65
2023/03/14 06:54:01;;;;;;;;;4.75;2.25;;;;;10.42;59.51;99532.59;4998948;28;47146;-65
2023/03/14 06:56:26;;;;;;;;;5.00;5.00;;;;;10.37;59.46;99541.44;4998576;28;52480;-65
2023/03/14 06:58:52;;;;;;;;;5.75;3.75;;;;;10.35;59.71;99552.88;4998925;28;49167;-65
2023/03/14 07:01:23;;;;;;;;;6.25;4.50;;;;;10.31;59.42;99553.91;4998897;28;45301;-65
2023/03/14 07:03:48;;;;;;;;;7.75;3.50;;;;;10.33;59.54;99563.44;4998960;28;45166;-65
2023/03/14 07:06:13;;;;;;;;;5.75;5.00;;;;;10.29;59.51;99574.97;4998774;28;46679;-65
2023/03/14 07:08:39;;;;;;;;;5.75;4.50;;;;;10.31;59.22;99574.91;4999143;28;45395;-64
2023/03/14 07:11:04;;;;;;;;;5.25;4.00;;;;;10.30;59.15;99584.56;4998688;28;45272;-65
2023/03/14 07:13:30;;;;;;;;;6.75;3.25;;;;;10.29;59.25;99600.34;4999137;28;45305;-65
2023/03/14 07:15:55;;;;;;;;;7.00;3.25;;;;;10.29;59.09;99616.97;4998459;28;45281;-65
2023/03/14 07:18:20;;;;;;;;;3.50;1.75;;;;;10.28;59.33;99615.25;4998913;28;45496;-65
2023/03/14 07:20:46;;;;;;;;;6.25;6.00;;;;;10.25;59.12;99618.84;4988583;28;50034;-65
2023/03/14 07:23:11;;;;;;;;;8.00;3.00;;;;;10.27;59.38;99638.94;5023988;27;45483;-65
2023/03/14 07:25:36;;;;;;;;;3.00;2.75;;;;;10.26;58.73;99635.44;5013521;28;53026;-67
2023/03/14 07:28:02;;;;;;;;;5.75;2.75;;;;;10.23;59.01;99631.13;4998635;28;48437;-65
2023/03/14 07:30:27;;;;;;;;;5.75;2.50;;;;;10.25;58.97;99641.59;5013769;28;47562;-65
2023/03/14 07:32:52;;;;;;;;;6.50;4.00;;;;;10.24;58.72;99650.41;4998884;28;45298;-65
2023/03/14 07:35:18;;;;;;;;;6.00;3.50;;;;;10.22;58.83;99662.69;4998311;28;45383;-66
2023/03/14 07:37:43;;;;;;;;;4.75;3.00;;;;;10.20;58.55;99659.25;4998665;28;45439;-65
2023/03/14 07:40:10;;;;;;;;;2.25;2.00;;;;;10.16;58.35;99679.50;4998416;28;45368;-65
2023/03/14 07:42:35;;;;;;;;;3.75;1.25;;;;;10.19;58.34;99699.56;4998230;28;45228;-65
2023/03/14 07:45:01;;;;;;;;;3.00;2.25;;;;;10.14;58.14;99709.31;4998343;28;45265;-65
2023/03/14 07:47:26;;;;;;;;;3.50;2.25;;;;;10.13;58.16;99720.75;4998399;28;45445;-66
2023/03/14 07:49:51;;;;;;;;;2.25;2.25;;;;;10.08;58.04;99734.84;4996481;28;45241;-65
2023/03/14 07:52:17;;;;;;;;;3.75;2.75;;;;;10.10;58.09;99734.81;4987129;28;45220;-65
2023/03/14 07:54:42;;;;;;;;;3.25;1.75;;;;;10.11;57.83;99727.78;4997941;28;46112;-65
2023/03/14 07:57:07;;;;;;;;;5.00;3.00;;;;;10.07;57.95;99751.50;4998443;28;45275;-65
2023/03/14 07:59:33;;;;;;;;;4.00;2.25;;;;;10.07;57.98;99745.38;4997725;27;45489;-65
2023/03/14 08:01:58;;;;;;;;;4.00;1.75;;;;;10.07;57.72;99762.00;4998135;28;53425;-65
2023/03/14 08:04:23;;;;;;;;;2.25;2.25;;;;;10.08;57.68;99771.59;4998165;28;46376;-65
2023/03/14 08:06:49;;;;;;;;;4.75;2.00;;;;;10.06;57.52;99783.91;4998216;28;45261;-65
2023/03/14 08:09:15;;;;;;;;;5.25;1.00;;;;;10.11;57.67;99791.63;4998206;28;45448;-65
2023/03/14 08:11:40;;;;;;;;;4.25;3.00;;;;;10.09;57.39;99796.09;4998275;28;45446;-65
2023/03/14 08:14:05;;;;;;;;;3.25;1.75;;;;;10.12;57.46;99793.38;4996727;28;46493;-65
2023/03/14 08:16:31;;;;;;;;;5.50;2.00;;;;;10.16;57.48;99802.03;4998231;28;45355;-65
2023/03/14 08:18:57;;;;;;;;;0.00;0.00;;;;;10.17;57.57;99811.63;4996072;27;45254;-65
2023/03/14 08:21:22;;;;;;;;;4.00;2.00;;;;;10.18;57.56;99814.19;4986927;28;45269;-66
2023/03/14 08:23:47;;;;;;;;;3.00;3.00;;;;;10.21;57.44;99818.50;4997145;28;46427;-66
2023/03/14 08:26:13;;;;;;;;;4.00;3.00;;;;;10.22;57.20;99815.81;4997978;28;45258;-66
2023/03/14 08:28:38;;;;;;;;;5.50;2.00;;;;;10.27;57.42;99817.50;4996524;28;45306;-66
2023/03/14 08:31:04;;;;;;;;;2.50;1.00;;;;;10.30;57.27;99834.03;4998142;28;45422;-66
2023/03/14 08:33:29;;;;;;;;;7.50;1.75;;;;;10.33;57.50;99831.31;4997696;28;45833;-66
2023/03/14 08:35:56;;;;;;;;;3.75;2.00;;;;;10.34;57.26;99833.03;4997985;28;45232;-65
2023/03/14 08:38:22;;;;;;;;;3.75;2.00;;;;;10.32;57.59;99824.31;4997910;28;45227;-65
2023/03/14 08:40:49;;;;;;;;;4.25;2.00;;;;;10.39;57.21;99844.31;4997631;28;45170;-65
2023/03/14 08:43:14;;;;;;;;;3.00;1.75;;;;;10.43;57.29;99842.44;4997875;28;45412;-65
2023/03/14 08:45:39;;;;;;;;;5.00;3.00;;;;;10.45;57.31;99858.16;4997638;28;45324;-61
2023/03/14 08:48:05;;;;;;;;;0.25;0.00;;;;;10.47;57.50;99856.38;4997261;28;56112;-62
2023/03/14 08:50:30;;;;;;;;;3.00;1.00;;;;;10.47;57.38;99872.13;4990549;28;45445;-62
2023/03/14 08:52:59;;;;;;;;;4.00;2.00;;;;;10.51;57.44;99879.00;4991438;28;45434;-62
2023/03/14 08:55:27;;;;;;;;;1.50;1.50;;;;;10.54;57.22;99871.03;5012898;28;45240;-62
2023/03/14 08:57:52;;;;;;;;;3.25;2.50;;;;;10.56;57.29;99899.00;4996408;28;45269;-62
2023/03/14 09:00:18;;;;;;;;;4.25;1.00;;;;;10.60;57.24;99898.91;4997445;28;45375;-63
2023/03/14 09:02:43;;;;;;;;;6.00;3.50;;;;;10.65;57.48;99897.00;4997504;28;45839;-64
2023/03/14 09:05:10;;;;;;;;;4.00;3.00;;;;;10.69;57.37;99898.66;5012702;28;45261;-63
2023/03/14 09:07:36;;;;;;;;;3.25;3.25;;;;;10.73;57.52;99887.16;4997675;28;45318;-61
2023/03/14 09:10:01;;;;;;;;;3.00;2.00;;;;;10.80;57.22;99912.34;4997270;28;45450;-63
2023/03/14 09:12:26;;;;;;;;;4.00;2.00;;;;;10.87;57.05;99918.31;4997462;28;45545;-63
2023/03/14 09:14:52;;;;;;;;;1.75;1.25;;;;;10.91;57.17;99913.81;4997482;28;45372;-63
2023/03/14 09:17:17;;;;;;;;;2.00;1.50;;;;;10.97;57.11;99911.00;4997532;28;45368;-63
2023/03/14 09:19:42;;;;;;;;;2.00;2.00;;;;;10.99;57.18;99910.06;4989184;27;45402;-64
2023/03/14 09:22:08;;;;;;;;;6.00;2.25;;;;;11.06;56.99;99932.63;5005273;27;46038;-64
2023/03/14 09:24:34;;;;;;;;;4.75;2.00;;;;;11.11;57.23;99915.88;4996015;28;45285;-64
2023/03/14 09:26:59;;;;;;;;;3.00;2.25;;;;;11.12;57.37;99921.09;4997396;28;45320;-65
2023/03/14 09:29:24;;;;;;;;;2.50;2.00;;;;;11.13;56.80;99925.44;5012356;28;45236;-65
2023/03/14 09:31:50;;;;;;;;;1.00;1.00;;;;;11.19;56.97;99927.91;4997176;28;45290;-64
2023/03/14 09:34:15;;;;;;;;;5.75;2.00;;;;;11.19;56.90;99927.91;5012167;28;45343;-64
2023/03/14 09:36:41;;;;;;;;;1.50;0.50;;;;;11.19;56.90;99938.41;5000124;28;45289;-64
2023/03/14 09:39:07;;;;;;;;;5.75;2.00;;;;;11.26;57.13;99954.88;4999946;28;45260;-64
2023/03/14 09:41:40;;;;;;;;;2.75;1.75;;;;;11.26;56.93;99961.88;5028381;27;46279;-64
2023/03/14 09:44:13;;;;;;;;;6.50;3.75;;;;;11.30;56.69;99968.78;4998645;28;45292;-64
2023/03/14 09:46:40;;;;;;;;;3.50;2.25;;;;;11.28;56.61;99968.84;4999907;28;45382;-62
2023/03/14 09:49:23;;;;;;;;;3.25;2.00;;;;;11.31;57.11;99981.88;5011194;28;45315;-63
2023/03/14 09:51:52;;;;;;;;;3.50;3.00;;;;;11.33;56.95;99995.88;4986468;28;46207;-63
2023/03/14 09:54:42;;;;;;;;;1.25;1.25;;;;;11.31;56.73;100025.75;5014525;28;45266;-63
2023/03/14 09:57:14;;;;;;;;;1.00;1.00;;;;;11.26;56.88;100017.09;4987119;28;45339;-63
2023/03/14 09:59:43;;;;;;;;;1.50;1.00;;;;;11.26;57.01;100030.25;4999630;28;45433;-63
2023/03/14 10:02:24;;;;;;;;;0.25;0.00;;;;;11.23;57.16;100018.06;5014730;27;45319;-63
2023/03/14 10:04:53;;;;;;;;;1.00;0.00;;;;;11.18;57.18;100026.09;4999360;28;45345;-66
2023/03/14 10:07:25;;;;;;;;;2.00;2.00;;;;;11.16;57.17;100024.41;4999705;28;45369;-67
2023/03/14 10:09:51;;;;;;;;;2.50;1.25;;;;;11.15;57.18;100033.22;4999397;28;46412;-66
2023/03/14 10:12:18;;;;;;;;;1.00;1.00;;;;;11.17;57.36;100034.88;4999422;28;46322;-64
2023/03/14 10:14:47;;;;;;;;;4.25;2.00;;;;;11.17;57.16;100047.16;4986561;27;45259;-65
2023/03/14 10:17:13;;;;;;;;;4.00;2.50;;;;;11.20;56.96;100076.88;4998173;28;45317;-65
2023/03/14 10:19:53;;;;;;;;;2.25;1.00;;;;;11.20;57.25;100097.06;4991873;27;45447;-65
2023/03/14 10:22:19;;;;;;;;;3.00;1.00;;;;;11.15;57.09;100101.56;4995210;27;46769;-65
2023/03/14 10:24:58;;;;;;;;;1.00;1.00;;;;;11.12;57.07;100107.78;4999625;28;45470;-64
2023/03/14 10:27:30;;;;;;;;;0.00;0.00;;;;;11.03;56.80;100122.03;4999427;28;45476;-63
2023/03/14 10:30:00;;;;;;;;;4.50;1.50;;;;;10.97;57.10;100116.06;4999454;28;45182;-65
2023/03/14 10:32:34;;;;;;;;;0.50;0.00;;;;;10.88;56.84;100122.44;4999109;28;46159;-61
2023/03/14 10:35:20;;;;;;;;;3.00;1.00;;;;;10.81;56.86;100098.06;4999132;28;45381;-62
2023/03/14 10:37:59;;;;;;;;;1.00;1.00;;;;;10.76;56.89;100123.59;4998190;28;45391;-63
2023/03/14 10:40:38;;;;;;;;;5.00;2.00;;;;;10.66;56.86;100117.69;4998978;28;45247;-62
2023/03/14 10:43:13;;;;;;;;;2.25;2.00;;;;;10.68;56.63;100121.16;4999062;28;46567;-62
2023/03/14 10:45:43;;;;;;;;;2.75;2.75;;;;;10.68;56.49;100131.66;5013772;28;45788;-61
2023/03/14 10:48:14;;;;;;;;;0.75;0.75;;;;;10.67;56.52;100137.81;4998920;28;45414;-61
2023/03/14 10:50:55;;;;;;;;;1.00;1.00;;;;;10.63;56.57;100123.03;4989293;28;45697;-67
2023/03/14 10:53:22;;;;;;;;;2.00;1.25;;;;;10.74;56.64;100138.53;4996069;28;46448;-68
2023/03/14 10:55:47;;;;;;;;;2.75;1.00;;;;;10.82;56.42;100152.34;4998988;28;45259;-64
2023/03/14 10:58:27;;;;;;;;;2.00;1.75;;;;;10.86;56.50;100146.09;4998961;28;45503;-66
2023/03/14 11:01:06;;;;;;;;;1.00;0.75;;;;;11.01;56.46;100157.16;4997752;28;45417;-64
2023/03/14 11:03:36;;;;;;;;;2.00;2.00;;;;;11.10;56.50;100182.34;4986994;28;45327;-64
2023/03/14 11:06:20;;;;;;;;;1.75;1.75;;;;;11.15;56.46;100183.09;4998826;28;45572;-65
2023/03/14 11:08:56;;;;;;;;;3.75;1.75;;;;;11.20;56.29;100187.31;4998031;28;45386;-65
2023/03/14 11:11:30;;;;;;;;;1.50;1.50;;;;;11.21;56.24;100182.94;4998729;28;45360;-65
2023/03/14 11:14:02;;;;;;;;;1.25;0.00;;;;;11.23;56.25;100181.13;5013807;28;45527;-65
2023/03/14 11:16:56;;;;;;;;;0.00;0.00;;;;;11.24;55.97;100185.47;4998907;28;45293;-64
2023/03/14 11:20:09;;;;;;;;;0.75;0.00;;;;;11.26;56.02;100178.44;5008346;28;45236;-66
2023/03/14 11:23:12;;;;;;;;;1.00;0.50;;;;;11.32;56.00;100172.13;4995941;27;45537;-64
2023/03/14 11:25:58;;;;;;;;;1.00;1.00;;;;;11.43;55.89;100179.75;5013558;28;45966;-65
2023/03/14 11:28:42;;;;;;;;;0.00;0.00;;;;;11.57;56.20;100180.22;4997480;28;45539;-65
2023/03/14 11:31:14;;;;;;;;;1.75;1.00;;;;;11.79;56.29;100195.44;4987917;27;45458;-64
2023/03/14 11:34:00;;;;;;;;;1.25;0.75;;;;;12.01;56.43;100178.16;4996921;28;45456;-65